Time;durP1;ratioP1;P1;durP2;ratioP2;P2;SDS_P1;SDS_P2;PMS_P1;PMS_P2;Temp;Humidity;BMP_temperature;BMP_pressure;BME280_temperature;BME280_humidity;BME280_pressure;Samples;Min_cycle;Max_cycle;Signal;HPM_P1;HPM_P2
2023/04/03 00:00:03;;;;;;;17.25;15.25;;;;;;;9.02;100.00;99471.78;4988894;28;20081;-77
2023/04/03 00:02:29;;;;;;;18.10;14.98;;;;;;;8.97;100.00;99462.25;4988418;28;20384;-77
2023/04/03 00:04:55;;;;;;;16.10;14.38;;;;;;;9.10;100.00;99505.72;4988780;28;20073;-75
2023/04/03 00:07:20;;;;;;;17.10;14.60;;;;;;;9.08;100.00;99518.84;4988900;28;20081;-75
2023/04/03 00:09:46;;;;;;;17.00;14.07;;;;;;;8.99;100.00;99508.47;4988885;28;20766;-75
2023/04/03 00:12:11;;;;;;;19.00;14.50;;;;;;;8.69;100.00;99453.78;4988776;28;20049;-76
2023/04/03 00:14:37;;;;;;;16.10;14.07;;;;;;;8.02;100.00;99374.91;4988776;28;20153;-75
2023/04/03 00:17:02;;;;;;;18.63;15.35;;;;;;;8.14;100.00;99381.81;4987382;28;20038;-75
2023/04/03 00:19:28;;;;;;;18.58;15.02;;;;;;;8.15;100.00;99380.94;4992344;28;20030;-76
2023/04/03 00:21:53;;;;;;;17.15;15.32;;;;;;;8.43;100.00;99496.66;5003271;28;20045;-75
2023/04/03 00:24:19;;;;;;;17.48;15.50;;;;;;;8.83;100.00;99507.69;4978707;28;20054;-75
2023/04/03 00:26:44;;;;;;;19.42;15.48;;;;;;;8.17;100.00;99390.50;4988816;28;20054;-75
2023/04/03 00:29:10;;;;;;;20.02;15.02;;;;;;;8.73;100.00;99473.78;4999757;28;20830;-74
2023/04/03 00:31:35;;;;;;;21.92;15.75;;;;;;;8.92;100.00;99498.94;4989233;28;20038;-75
2023/04/03 00:34:01;;;;;;;16.83;13.82;;;;;;;8.48;100.00;99419.06;4987981;28;20057;-75
2023/04/03 00:36:26;;;;;;;17.35;15.38;;;;;;;8.54;100.00;99499.19;4987187;28;20047;-77
2023/04/03 00:38:52;;;;;;;20.15;15.45;;;;;;;8.63;100.00;99497.38;4984966;28;20124;-77
2023/04/03 00:41:17;;;;;;;15.30;13.65;;;;;;;8.66;100.00;99500.00;4988025;28;20046;-77
2023/04/03 00:43:43;;;;;;;16.00;14.02;;;;;;;8.53;100.00;99474.78;4989371;28;20457;-76
2023/04/03 00:46:08;;;;;;;16.35;14.45;;;;;;;8.78;100.00;99499.03;4988198;28;20042;-75
2023/04/03 00:48:44;;;;;;;18.02;15.40;;;;;;;8.80;100.00;99506.84;4987817;28;20042;-76
2023/04/03 00:51:14;;;;;;;16.90;15.05;;;;;;;7.83;100.00;99380.25;4988326;28;20177;-76
2023/04/03 00:53:45;;;;;;;17.77;15.43;;;;;;;8.56;100.00;99515.75;4994812;28;20042;-76
2023/04/03 00:56:15;;;;;;;17.65;15.85;;;;;;;7.77;100.00;99393.34;4983686;28;20403;-76
2023/04/03 00:58:51;;;;;;;19.98;15.70;;;;;;;8.59;100.00;99511.38;4988681;28;20113;-75
2023/04/03 01:01:22;;;;;;;15.68;14.13;;;;;;;7.86;100.00;99391.56;4988308;28;20220;-77
2023/04/03 01:03:48;;;;;;;24.33;16.05;;;;;;;8.64;100.00;99506.09;4988490;28;20046;-76
2023/04/03 01:06:17;;;;;;;18.63;15.27;;;;;;;8.61;100.00;99520.03;4987820;28;20066;-76
2023/04/03 01:08:43;;;;;;;18.55;15.60;;;;;;;7.70;100.00;99382.94;4987144;28;20050;-75
2023/04/03 01:11:08;;;;;;;18.48;16.25;;;;;;;8.19;100.00;99500.22;4988274;28;20466;-75
2023/04/03 01:13:34;;;;;;;16.85;15.15;;;;;;;7.65;100.00;99380.34;4988912;28;20038;-76
2023/04/03 01:16:04;;;;;;;18.80;15.88;;;;;;;8.57;100.00;99528.81;4988845;28;20042;-77
2023/04/03 01:18:30;;;;;;;19.15;16.73;;;;;;;8.00;100.00;99478.53;4991886;28;20046;-77
2023/04/03 01:20:56;;;;;;;21.52;18.70;;;;;;;8.32;100.00;99524.56;5006065;28;20379;-75
2023/04/03 01:23:35;;;;;;;21.08;18.70;;;;;;;7.66;100.00;99355.13;4988512;28;20058;-75
2023/04/03 01:26:00;;;;;;;19.05;16.70;;;;;;;8.54;100.00;99514.88;4985020;28;20070;-76
2023/04/03 01:28:29;;;;;;;22.48;18.85;;;;;;;8.48;100.00;99513.19;4991969;28;20301;-75
2023/04/03 01:31:14;;;;;;;21.20;17.80;;;;;;;8.48;100.00;99517.53;4991385;28;20050;-74
2023/04/03 01:33:40;;;;;;;21.88;18.17;;;;;;;7.61;100.00;99381.25;4990130;28;20494;-75
2023/04/03 01:36:06;;;;;;;22.50;19.20;;;;;;;8.05;100.00;99450.66;4991055;28;20038;-76
2023/04/03 01:38:32;;;;;;;18.35;15.55;;;;;;;7.82;100.00;99414.22;4990198;28;20042;-76
2023/04/03 01:40:57;;;;;;;19.35;17.15;;;;;;;8.20;100.00;99492.38;4991270;28;20038;-77
2023/04/03 01:43:23;;;;;;;23.23;19.15;;;;;;;8.29;100.00;99491.47;4991345;28;20077;-76
2023/04/03 01:45:49;;;;;;;21.33;18.55;;;;;;;8.47;100.00;99532.34;4991337;28;20053;-75
2023/04/03 01:48:16;;;;;;;23.08;18.23;;;;;;;7.66;100.00;99397.75;4990953;28;20082;-74
2023/04/03 01:50:41;;;;;;;23.42;17.75;;;;;;;8.47;100.00;99524.50;4990794;28;20042;-76
2023/04/03 01:53:07;;;;;;;23.05;19.52;;;;;;;8.34;100.00;99535.88;4990182;28;20037;-77
2023/04/03 01:55:32;;;;;;;20.10;17.80;;;;;;;7.48;100.00;99409.13;4990725;28;20550;-75
2023/04/03 01:57:58;;;;;;;25.77;21.40;;;;;;;7.25;100.00;99390.06;4990540;28;20049;-76
2023/04/03 02:00:23;;;;;;;24.77;19.80;;;;;;;7.24;100.00;99410.09;4990275;28;20146;-77
2023/04/03 02:02:49;;;;;;;23.48;18.08;;;;;;;7.22;100.00;99390.09;4990914;28;20657;-75
2023/04/03 02:05:15;;;;;;;22.90;19.92;;;;;;;7.67;100.00;99451.69;4990406;28;20038;-75
2023/04/03 02:07:41;;;;;;;21.20;18.90;;;;;;;8.23;100.00;99517.63;4990153;28;20049;-75
2023/04/03 02:10:06;;;;;;;27.08;21.63;;;;;;;8.29;100.00;99517.59;4990798;28;20062;-75
2023/04/03 02:12:32;;;;;;;26.27;20.48;;;;;;;7.72;100.00;99498.69;4989859;28;20047;-75
2023/04/03 02:14:57;;;;;;;26.30;23.25;;;;;;;7.81;100.00;99515.19;4990418;28;20051;-76
2023/04/03 02:17:23;;;;;;;28.52;25.42;;;;;;;7.71;100.00;99489.13;4988999;28;20096;-75
2023/04/03 02:19:48;;;;;;;26.70;22.65;;;;;;;8.00;100.00;99502.06;4995464;28;20026;-75
2023/04/03 02:22:14;;;;;;;28.55;24.58;;;;;;;7.97;100.00;99489.03;4989918;28;20530;-75
2023/04/03 02:24:40;;;;;;;28.15;24.67;;;;;;;7.24;100.00;99370.09;4989977;28;20126;-74
2023/04/03 02:27:05;;;;;;;27.08;24.17;;;;;;;8.19;100.00;99516.78;4989487;28;20060;-75
2023/04/03 02:29:31;;;;;;;33.80;29.90;;;;;;;7.89;100.00;99509.06;4976640;28;20637;-76
2023/04/03 02:31:56;;;;;;;38.67;26.15;;;;;;;7.23;100.00;99402.25;4985098;28;20084;-75
2023/04/03 02:34:22;;;;;;;33.30;28.90;;;;;;;6.83;100.00;99365.84;4989333;28;20054;-75
2023/04/03 02:36:47;;;;;;;38.13;32.92;;;;;;;6.79;100.00;99371.91;4988083;28;20061;-75
2023/04/03 02:39:13;;;;;;;33.45;29.85;;;;;;;7.27;100.00;99474.44;4989822;28;20053;-74
2023/04/03 02:41:39;;;;;;;37.58;31.20;;;;;;;6.59;100.00;99375.44;4989825;28;20074;-75
2023/04/03 02:44:06;;;;;;;38.55;34.42;;;;;;;7.42;100.00;99510.94;4989830;28;20046;-75
2023/04/03 02:46:33;;;;;;;35.55;29.85;;;;;;;7.56;100.00;99503.06;4989580;28;20042;-77
2023/04/03 02:48:58;;;;;;;35.95;28.65;;;;;;;7.13;100.00;99377.94;4990321;28;20066;-76
2023/04/03 02:51:24;;;;;;;34.10;30.27;;;;;;;6.71;100.00;99322.41;4989505;28;20470;-75
2023/04/03 02:53:50;;;;;;;36.28;31.58;;;;;;;7.43;100.00;99465.69;4989490;28;20922;-77
2023/04/03 02:56:17;;;;;;;36.08;31.20;;;;;;;7.49;100.00;99468.31;4989755;28;20061;-75
2023/04/03 02:58:44;;;;;;;37.58;33.55;;;;;;;7.36;100.00;99477.91;4990041;28;20072;-75
2023/04/03 03:01:10;;;;;;;38.38;34.28;;;;;;;6.49;100.00;99353.72;4987708;28;20467;-75
2023/04/03 03:03:35;;;;;;;39.25;34.03;;;;;;;6.59;100.00;99358.94;4989560;28;20085;-75
2023/04/03 03:06:03;;;;;;;38.35;32.20;;;;;;;5.88;100.00;99250.38;4989338;28;20046;-76
2023/04/03 03:08:28;;;;;;;38.97;34.13;;;;;;;6.57;100.00;99363.28;4990074;28;20043;-76
2023/04/03 03:10:54;;;;;;;40.50;32.75;;;;;;;6.66;100.00;99384.97;4990211;28;20038;-75
2023/04/03 03:13:19;;;;;;;38.63;33.15;;;;;;;6.86;100.00;99444.94;4989472;28;20506;-75
2023/04/03 03:15:45;;;;;;;39.63;32.92;;;;;;;7.07;100.00;99501.44;4983475;28;20429;-77
2023/04/03 03:18:10;;;;;;;38.70;33.88;;;;;;;7.02;100.00;99494.47;4977026;28;20173;-78
2023/04/03 03:20:36;;;;;;;39.17;32.28;;;;;;;7.10;100.00;99490.13;4998838;28;20048;-76
2023/04/03 03:23:03;;;;;;;34.88;31.02;;;;;;;6.28;100.00;99348.53;4990491;28;20030;-75
2023/04/03 03:25:28;;;;;;;37.17;32.65;;;;;;;7.08;100.00;99500.53;4990135;28;20054;-76
2023/04/03 03:27:54;;;;;;;22.83;17.35;;;;;;;6.96;100.00;99444.03;4990001;28;20047;-75
2023/04/03 03:30:19;;;;;;;25.90;16.90;;;;;;;6.75;100.00;99395.41;4989590;28;20038;-76
2023/04/03 03:32:45;;;;;;;21.45;15.93;;;;;;;7.53;100.00;99488.28;4989399;28;20072;-76
2023/04/03 03:35:10;;;;;;;32.88;28.65;;;;;;;7.64;100.00;99497.84;4978759;28;20117;-76
2023/04/03 03:37:36;;;;;;;33.17;27.67;;;;;;;6.77;100.00;99343.25;4989102;28;20120;-76
2023/04/03 03:40:02;;;;;;;31.27;25.45;;;;;;;6.91;100.00;99364.09;4989579;28;20470;-77
2023/04/03 03:42:27;;;;;;;34.33;24.98;;;;;;;6.91;100.00;99367.56;4989559;28;20054;-76
2023/04/03 03:44:53;;;;;;;31.63;23.48;;;;;;;7.83;100.00;99489.94;4989349;28;20388;-77
2023/04/03 03:47:19;;;;;;;30.52;24.40;;;;;;;7.19;100.00;99373.56;4989514;28;20398;-75
2023/04/03 03:49:44;;;;;;;28.17;23.65;;;;;;;7.93;100.00;99514.28;4989616;28;20026;-77
2023/04/03 03:52:10;;;;;;;34.33;26.13;;;;;;;7.85;100.00;99518.66;4988896;28;20493;-76
2023/04/03 03:54:37;;;;;;;31.95;25.10;;;;;;;7.91;100.00;99541.28;4988636;28;20054;-76
2023/04/03 03:57:03;;;;;;;26.20;23.40;;;;;;;7.42;100.00;99455.25;4989056;28;20138;-75
2023/04/03 03:59:28;;;;;;;26.58;22.95;;;;;;;7.78;100.00;99504.75;4989159;28;20038;-74
2023/04/03 04:01:54;;;;;;;30.55;22.00;;;;;;;7.97;100.00;99515.13;4990067;28;20174;-75
2023/04/03 04:04:21;;;;;;;26.05;22.98;;;;;;;8.06;100.00;99529.91;4987872;28;20046;-75
2023/04/03 04:06:46;;;;;;;28.40;21.98;;;;;;;8.13;100.00;99547.31;4988813;28;20065;-77
2023/04/03 04:09:12;;;;;;;31.77;26.08;;;;;;;7.16;100.00;99412.72;4988630;28;20051;-77
2023/04/03 04:11:39;;;;;;;29.02;24.10;;;;;;;7.93;100.00;99518.63;4988415;28;20045;-76
2023/04/03 04:14:05;;;;;;;28.23;23.75;;;;;;;8.03;100.00;99536.03;4988581;28;20131;-75
2023/04/03 04:16:31;;;;;;;27.73;24.75;;;;;;;8.19;100.00;99555.09;4987587;28;20033;-76
2023/04/03 04:18:56;;;;;;;30.52;24.42;;;;;;;8.31;100.00;99557.69;4988015;28;20780;-77
2023/04/03 04:21:22;;;;;;;37.65;24.25;;;;;;;8.19;100.00;99574.28;5007652;28;20494;-76
2023/04/03 04:23:47;;;;;;;28.20;24.35;;;;;;;7.30;100.00;99446.59;4993309;28;20092;-75
2023/04/03 04:26:13;;;;;;;28.98;23.52;;;;;;;7.47;100.00;99445.66;4986148;28;20500;-77
2023/04/03 04:28:38;;;;;;;27.23;24.33;;;;;;;7.79;100.00;99495.16;4986398;28;20031;-77
2023/04/03 04:31:04;;;;;;;26.63;23.75;;;;;;;8.31;100.00;99583.81;4991909;28;20050;-76
2023/04/03 04:33:29;;;;;;;31.88;24.15;;;;;;;8.29;100.00;99589.91;4986385;28;20189;-73
2023/04/03 04:35:55;;;;;;;29.48;25.13;;;;;;;7.73;100.00;99524.81;4986505;28;20067;-72
2023/04/03 04:38:21;;;;;;;36.38;25.15;;;;;;;8.01;100.00;99583.03;4986288;28;20133;-70
2023/04/03 04:40:48;;;;;;;27.85;23.80;;;;;;;8.17;100.00;99596.03;4987224;28;20042;-72
2023/04/03 04:43:14;;;;;;;33.85;27.85;;;;;;;7.27;100.00;99459.66;4987049;28;20058;-71
2023/04/03 04:45:40;;;;;;;32.95;25.70;;;;;;;8.30;100.00;99602.09;4987002;28;20075;-70
2023/04/03 04:48:06;;;;;;;25.75;21.27;;;;;;;8.40;100.00;99599.47;4985982;28;20038;-72
2023/04/03 04:50:31;;;;;;;23.88;21.20;;;;;;;7.58;100.00;99447.38;4988463;28;20631;-70
2023/04/03 04:52:57;;;;;;;26.58;23.70;;;;;;;8.36;100.00;99596.88;4990394;28;20056;-71
2023/04/03 04:55:22;;;;;;;29.30;24.90;;;;;;;8.30;100.00;99605.59;4990288;28;20045;-71
2023/04/03 04:57:48;;;;;;;28.30;23.35;;;;;;;7.67;100.00;99483.03;4990518;28;20053;-70
2023/04/03 05:00:15;;;;;;;22.38;19.42;;;;;;;7.89;100.00;99548.25;4990573;28;20458;-70
2023/04/03 05:02:40;;;;;;;23.38;20.90;;;;;;;8.35;100.00;99575.06;4991213;28;20384;-70
2023/04/03 05:05:06;;;;;;;25.80;19.45;;;;;;;8.29;100.00;99622.16;4990263;28;20045;-70
2023/04/03 05:07:32;;;;;;;23.23;20.65;;;;;;;7.53;100.00;99488.28;4990760;28;20032;-70
2023/04/03 05:09:57;;;;;;;26.50;22.45;;;;;;;8.51;100.00;99612.50;4991378;28;20046;-72
2023/04/03 05:12:23;;;;;;;21.77;19.48;;;;;;;8.95;100.00;99571.28;4991135;28;20047;-71
2023/04/03 05:14:48;;;;;;;22.83;19.25;;;;;;;9.72;100.00;99627.38;4991085;28;20128;-70
2023/04/03 05:17:14;;;;;;;20.65;18.02;;;;;;;11.26;100.00;99636.03;4989378;28;20039;-71
2023/04/03 05:19:39;;;;;;;22.45;19.60;;;;;;;11.03;100.00;99559.34;4996726;28;20489;-70
2023/04/03 05:22:05;;;;;;;19.48;17.08;;;;;;;11.48;100.00;99717.13;5002066;28;20528;-70
2023/04/03 05:24:30;;;;;;;19.17;16.23;;;;;;;11.12;100.00;99658.97;4990996;28;20039;-71
2023/04/03 05:26:56;;;;;;;18.48;15.45;;;;;;;10.73;100.00;99806.44;4987911;28;20069;-72
2023/04/03 05:29:22;;;;;;;19.45;16.15;;;;;;;9.89;100.00;99703.19;4983416;28;20130;-72
2023/04/03 05:31:50;;;;;;;19.10;16.50;;;;;;;10.90;100.00;99740.63;4982742;28;20023;-72
2023/04/03 05:34:15;;;;;;;17.83;14.52;;;;;;;13.16;100.00;99881.78;4990054;28;20069;-72
2023/04/03 05:36:41;;;;;;;17.58;14.77;;;;;;;12.58;100.00;99814.41;4990306;28;20054;-70
2023/04/03 05:39:07;;;;;;;16.02;13.23;;;;;;;13.56;100.00;99968.00;4990690;28;20110;-71
2023/04/03 05:41:33;;;;;;;14.52;12.85;;;;;;;11.38;100.00;99882.75;4990821;28;20046;-70
2023/04/03 05:43:59;;;;;;;13.35;11.70;;;;;;;11.78;100.00;99863.84;4991100;28;20153;-69
2023/04/03 05:46:24;;;;;;;13.63;10.02;;;;;;;12.59;100.00;99843.28;4990790;28;20925;-70
2023/04/03 05:48:51;;;;;;;13.77;12.38;;;;;;;13.33;100.00;100009.72;4986248;28;20058;-70
2023/04/03 05:51:21;;;;;;;18.27;12.77;;;;;;;13.68;100.00;99980.06;4989986;28;20843;-70
2023/04/03 05:53:47;;;;;;;13.45;10.43;;;;;;;14.23;100.00;100046.66;4989089;28;20060;-69
2023/04/03 05:56:13;;;;;;;14.45;11.23;;;;;;;14.11;100.00;99945.75;4990113;28;20046;-69
2023/04/03 05:58:38;;;;;;;13.38;10.18;;;;;;;13.94;100.00;99929.44;4990958;28;20057;-71
2023/04/03 06:01:05;;;;;;;14.88;10.32;;;;;;;13.87;100.00;100035.97;4989576;28;20379;-71
2023/04/03 06:03:31;;;;;;;13.82;11.13;;;;;;;13.72;100.00;99956.25;4988843;28;20066;-70
2023/04/03 06:05:56;;;;;;;13.25;10.88;;;;;;;12.68;100.00;99955.47;4987951;28;20384;-69
2023/04/03 06:08:23;;;;;;;14.20;11.82;;;;;;;14.04;100.00;100085.75;4989972;28;20546;-72
2023/04/03 06:10:50;;;;;;;20.73;9.70;;;;;;;12.06;100.00;99955.50;4990479;28;20526;-69
2023/04/03 06:13:15;;;;;;;11.10;9.43;;;;;;;13.55;100.00;100084.00;4989528;28;20049;-70
2023/04/03 06:15:41;;;;;;;16.75;11.25;;;;;;;14.12;100.00;100060.09;4987880;28;20430;-70
2023/04/03 06:18:06;;;;;;;13.02;10.43;;;;;;;13.03;100.00;100098.88;4990432;28;20429;-72
2023/04/03 06:20:32;;;;;;;13.18;9.32;;;;;;;12.88;100.00;100082.41;4989562;28;20156;-71
2023/04/03 06:22:58;;;;;;;14.40;9.93;;;;;;;11.79;100.00;99988.25;4990324;28;20023;-70
2023/04/03 06:25:23;;;;;;;14.25;8.93;;;;;;;11.63;100.00;100003.31;4986555;28;20420;-71
2023/04/03 06:27:49;;;;;;;13.40;8.60;;;;;;;12.51;100.00;100075.94;4977825;28;20472;-71
2023/04/03 06:30:14;;;;;;;22.23;9.30;;;;;;;12.28;100.00;100065.69;4990100;28;20050;-70
2023/04/03 06:32:40;;;;;;;11.15;7.97;;;;;;;11.35;100.00;99984.34;4989494;28;20050;-71
2023/04/03 06:35:06;;;;;;;11.93;7.97;;;;;;;11.81;100.00;100049.56;4988860;28;20034;-71
2023/04/03 06:37:32;;;;;;;13.75;9.73;;;;;;;11.53;100.00;100062.97;4988410;28;20023;-71
2023/04/03 06:40:02;;;;;;;16.63;9.90;;;;;;;11.24;100.00;99957.31;4989207;28;20057;-73
2023/04/03 06:42:28;;;;;;;10.48;7.70;;;;;;;10.99;100.00;99979.41;4990379;28;20030;-74
2023/04/03 06:44:53;;;;;;;12.90;9.80;;;;;;;11.83;100.00;100089.84;4988675;28;20073;-74
2023/04/03 06:47:19;;;;;;;11.98;9.15;;;;;;;11.23;100.00;100015.97;4989737;28;20030;-74
2023/04/03 06:49:46;;;;;;;13.68;9.98;;;;;;;11.28;100.00;100093.84;4988673;28;20080;-73
2023/04/03 06:52:12;;;;;;;13.85;9.25;;;;;;;11.04;100.00;100016.13;4988623;28;20074;-71
2023/04/03 06:54:39;;;;;;;16.05;10.35;;;;;;;11.06;100.00;100087.03;4988533;28;20129;-71
2023/04/03 06:57:04;;;;;;;17.17;10.65;;;;;;;10.94;100.00;100080.09;4989212;28;20534;-70
2023/04/03 06:59:30;;;;;;;12.30;9.95;;;;;;;10.77;100.00;99968.25;4988247;28;20125;-70
2023/04/03 07:01:55;;;;;;;13.27;9.32;;;;;;;10.94;100.00;100094.09;4988827;28;20092;-70
2023/04/03 07:04:21;;;;;;;14.48;9.93;;;;;;;10.75;100.00;100108.22;4987757;28;20234;-70
2023/04/03 07:06:47;;;;;;;16.50;10.48;;;;;;;10.90;100.00;100083.63;4988569;28;20431;-71
2023/04/03 07:09:15;;;;;;;14.20;10.13;;;;;;;10.53;100.00;100013.00;4989187;28;20043;-70
2023/04/03 07:11:41;;;;;;;18.90;11.13;;;;;;;10.46;100.00;99999.06;4988821;28;20060;-70
2023/04/03 07:14:07;;;;;;;10.73;8.50;;;;;;;11.39;100.00;100112.16;4983793;28;20838;-71
2023/04/03 07:16:34;;;;;;;13.23;9.43;;;;;;;11.39;100.00;100120.91;4985005;28;20151;-72
2023/04/03 07:19:01;;;;;;;13.68;10.15;;;;;;;11.42;100.00;100114.75;4989026;28;20130;-72
2023/04/03 07:21:27;;;;;;;17.60;10.43;;;;;;;10.78;100.00;99961.22;5005252;28;20034;-72
2023/04/03 07:23:53;;;;;;;12.70;7.07;;;;;;;13.49;100.00;99964.63;4988448;28;20050;-73
2023/04/03 07:26:23;;;;;;;15.82;10.77;;;;;;;11.95;100.00;100131.81;4984732;28;20101;-73
2023/04/03 07:28:49;;;;;;;19.85;10.90;;;;;;;11.02;100.00;100044.16;4986727;28;20084;-71
2023/04/03 07:31:16;;;;;;;11.50;8.88;;;;;;;11.84;100.00;100137.13;4987001;28;20046;-72
2023/04/03 07:33:43;;;;;;;19.60;10.02;;;;;;;11.45;100.00;100090.19;4986804;28;20054;-75
2023/04/03 07:36:10;;;;;;;13.32;10.00;;;;;;;11.70;100.00;100133.75;4986419;28;20049;-71
2023/04/03 07:38:36;;;;;;;14.75;10.50;;;;;;;11.81;100.00;100118.75;4988245;28;20035;-72
2023/04/03 07:41:02;;;;;;;34.53;11.93;;;;;;;10.84;100.00;100057.41;4987042;28;20126;-71
2023/04/03 07:43:34;;;;;;;13.15;10.32;;;;;;;11.02;100.00;100053.78;4988011;28;20054;-72
2023/04/03 07:46:00;;;;;;;18.02;11.05;;;;;;;11.73;100.00;100125.88;4988947;28;20406;-72
2023/04/03 07:48:26;;;;;;;14.13;10.23;;;;;;;11.54;100.00;100064.72;5003408;28;20519;-71
2023/04/03 07:50:51;;;;;;;17.08;11.15;;;;;;;12.39;100.00;100169.91;4988167;28;20050;-72
2023/04/03 07:53:17;;;;;;;14.13;10.20;;;;;;;11.71;100.00;100084.72;4988335;28;20124;-72
2023/04/03 07:55:46;;;;;;;11.73;9.50;;;;;;;12.00;100.00;100161.56;4988499;28;20034;-72
2023/04/03 07:58:15;;;;;;;13.10;9.65;;;;;;;12.35;100.00;100193.66;4993357;28;20050;-72
2023/04/03 08:00:41;;;;;;;15.02;9.57;;;;;;;12.19;100.00;100153.47;4987126;28;20058;-72
2023/04/03 08:03:07;;;;;;;16.40;11.07;;;;;;;11.47;100.00;100030.63;4988062;28;20056;-72
2023/04/03 08:05:41;;;;;;;17.58;9.43;;;;;;;11.62;100.00;100036.59;4986518;28;20138;-81
2023/04/03 08:08:07;;;;;;;12.95;9.20;;;;;;;11.81;100.00;100083.72;4983699;28;20026;-81
2023/04/03 08:10:33;;;;;;;13.07;9.65;;;;;;;11.35;100.00;100050.88;4977777;28;20102;-83
2023/04/03 08:12:59;;;;;;;19.63;10.98;;;;;;;11.79;100.00;100125.78;4984432;28;20414;-81
2023/04/03 08:15:25;;;;;;;10.40;8.20;;;;;;;11.87;100.00;100080.16;4988381;28;20045;-79
2023/04/03 08:17:51;;;;;;;17.55;11.23;;;;;;;11.99;100.00;100154.56;4983723;28;20486;-81
2023/04/03 08:20:17;;;;;;;15.55;11.48;;;;;;;12.43;100.00;100147.94;4997564;28;20034;-80
2023/04/03 08:22:42;;;;;;;26.60;11.82;;;;;;;12.33;100.00;100117.34;4993064;28;20042;-79
2023/04/03 08:25:08;;;;;;;14.50;11.10;;;;;;;12.38;100.00;100123.44;5017111;28;20406;-81
2023/04/03 08:27:34;;;;;;;15.48;9.50;;;;;;;11.83;100.00;100035.50;4987679;28;20046;-81
2023/04/03 08:30:00;;;;;;;14.38;9.98;;;;;;;11.87;100.00;100081.09;4983173;28;20111;-73
2023/04/03 08:32:25;;;;;;;13.85;10.88;;;;;;;11.57;100.00;100090.97;4986385;28;20042;-71
2023/04/03 08:34:52;;;;;;;15.18;10.30;;;;;;;12.64;100.00;100169.63;4987541;28;20145;-77
2023/04/03 08:37:18;;;;;;;91.55;20.92;;;;;;;12.78;100.00;100151.00;4986801;28;20125;-83
2023/04/03 08:39:44;;;;;;;16.83;10.88;;;;;;;12.86;100.00;100171.09;4987172;28;20471;-78
2023/04/03 08:42:34;;;;;;;96.97;24.52;;;;;;;12.97;100.00;100167.44;4986874;28;20134;-80
2023/04/03 08:45:14;;;;;;;15.50;10.48;;;;;;;12.70;100.00;100050.22;4986246;28;20132;-82
2023/04/03 08:47:47;;;;;;;74.93;19.40;;;;;;;13.33;100.00;100170.47;4987469;28;20542;-79
2023/04/03 08:50:18;;;;;;;18.90;12.23;;;;;;;12.71;100.00;100075.63;4987510;28;20435;-81
2023/04/03 08:52:47;;;;;;;28.48;12.00;;;;;;;13.57;100.00;100170.06;4972878;28;20034;-82
2023/04/03 08:55:31;;;;;;;12.57;10.68;;;;;;;13.48;100.00;100188.69;4987661;28;20096;-82
2023/04/03 08:58:05;;;;;;;12.43;9.80;;;;;;;13.56;100.00;100193.84;4986219;28;20422;-82
2023/04/03 09:00:45;;;;;;;12.18;8.98;;;;;;;12.86;100.00;100107.91;4996784;28;20046;-81
2023/04/03 09:03:16;;;;;;;14.25;10.60;;;;;;;13.34;100.00;100211.75;4987559;28;20050;-82
2023/04/03 09:05:53;;;;;;;13.98;10.68;;;;;;;12.80;100.00;100097.44;4987649;28;20566;-80
2023/04/03 09:08:28;;;;;;;13.63;8.75;;;;;;;13.13;100.00;100111.00;4989842;28;20089;-81
2023/04/03 09:11:13;;;;;;;11.63;8.52;;;;;;;13.84;100.00;100208.31;4991978;28;20044;-80
2023/04/03 09:13:57;;;;;;;14.07;10.93;;;;;;;13.59;100.00;100070.75;4994539;28;20061;-82
2023/04/03 09:16:51;;;;;;;13.75;7.65;;;;;;;14.12;100.00;100198.16;4990075;28;20043;-82
2023/04/03 09:19:28;;;;;;;13.75;9.70;;;;;;;14.30;100.00;100189.00;4992382;28;20046;-82
2023/04/03 09:22:16;;;;;;;15.93;8.57;;;;;;;13.58;100.00;100185.03;4989185;28;20085;-81
2023/04/03 09:24:45;;;;;;;13.27;8.07;;;;;;;13.80;100.00;100060.72;4989721;28;20069;-78
2023/04/03 09:27:11;;;;;;;20.75;10.52;;;;;;;14.43;100.00;100162.41;4987468;28;20059;-82
2023/04/03 09:29:43;;;;;;;19.42;11.45;;;;;;;14.54;100.00;100177.16;4987637;28;20046;-82
2023/04/03 09:32:27;;;;;;;19.08;9.68;;;;;;;14.00;100.00;100152.63;4983661;28;20526;-74
2023/04/03 09:34:56;;;;;;;11.25;8.18;;;;;;;14.08;100.00;100159.53;4975525;28;20042;-75
2023/04/03 09:37:38;;;;;;;14.32;9.25;;;;;;;13.92;100.00;100197.63;4987588;28;20050;-74
2023/04/03 09:40:05;;;;;;;12.50;9.68;;;;;;;13.60;100.00;100090.06;4983752;28;20050;-83
2023/04/03 09:42:32;;;;;;;24.55;10.98;;;;;;;13.80;100.00;100058.94;4990260;28;20050;-83
2023/04/03 09:45:04;;;;;;;15.10;10.23;;;;;;;13.77;100.00;100150.44;4994130;28;20046;-83
2023/04/03 09:47:38;;;;;;;15.45;10.93;;;;;;;13.65;100.00;100147.09;4990733;28;20054;-84
2023/04/03 09:50:15;;;;;;;18.60;11.40;;;;;;;14.23;100.00;100162.78;4971238;28;20034;-82
2023/04/03 09:52:43;;;;;;;12.73;8.25;;;;;;;13.22;100.00;99989.66;4991149;28;20034;-72
2023/04/03 09:55:28;;;;;;;10.52;7.60;;;;;;;13.94;100.00;100085.06;4988616;28;20109;-82
2023/04/03 09:58:02;;;;;;;10.35;7.80;;;;;;;14.35;100.00;100141.41;4987620;28;20503;-89
2023/04/03 10:00:35;;;;;;;12.63;8.45;;;;;;;14.06;100.00;100047.88;4990718;28;20043;-83
2023/04/03 10:03:01;;;;;;;11.87;7.97;;;;;;;14.00;100.00;100163.19;4987402;28;20061;-82
2023/04/03 10:05:41;;;;;;;17.13;8.63;;;;;;;14.42;100.00;100140.41;4988449;28;20137;-81
2023/04/03 10:08:34;;;;;;;9.73;7.97;;;;;;;14.51;100.00;100158.69;4983853;28;20064;-81
2023/04/03 10:11:14;;;;;;;22.05;11.85;;;;;;;13.76;100.00;100037.94;4981570;28;20062;-84
2023/04/03 10:14:00;;;;;;;13.07;9.02;;;;;;;13.85;100.00;100075.53;4985026;28;20201;-73
2023/04/03 10:16:41;;;;;;;9.88;7.85;;;;;;;13.56;100.00;100044.44;4974405;28;20628;-73
2023/04/03 10:19:26;;;;;;;13.23;8.30;;;;;;;14.62;100.00;100152.38;4989341;28;20090;-72
2023/04/03 10:22:00;;;;;;;22.77;10.98;;;;;;;14.70;100.00;100134.56;4996149;28;20066;-72
2023/04/03 10:24:46;;;;;;;12.07;9.00;;;;;;;15.01;100.00;100158.56;4987598;28;20054;-74
2023/04/03 10:27:52;;;;;;;14.77;8.90;;;;;;;14.86;100.00;100141.25;4988184;28;20061;-73
2023/04/03 10:30:33;;;;;;;10.60;9.07;;;;;;;15.23;100.00;100158.94;4988928;28;20054;-71
2023/04/03 10:33:20;;;;;;;14.00;8.93;;;;;;;15.32;100.00;100163.16;4984207;28;20043;-73
2023/04/03 10:36:01;;;;;;;18.92;8.88;;;;;;;14.74;100.00;100152.97;4987732;28;20101;-76
2023/04/03 10:38:32;;;;;;;16.75;8.93;;;;;;;15.21;100.00;100166.03;4988075;28;20137;-74
2023/04/03 10:41:25;;;;;;;11.38;9.88;;;;;;;14.46;100.00;100099.84;4989630;28;20087;-75
2023/04/03 10:44:19;;;;;;;14.00;10.63;;;;;;;14.52;100.00;100141.97;4988462;28;20046;-74
2023/04/03 10:46:49;;;;;;;14.80;9.65;;;;;;;14.47;100.00;100058.44;5015235;28;20062;-75
2023/04/03 10:49:25;;;;;;;12.80;8.95;;;;;;;15.27;100.00;100151.81;4987856;28;20056;-74
2023/04/03 10:52:14;;;;;;;19.83;10.45;;;;;;;14.60;100.00;100025.63;4983796;28;20491;-74
2023/04/03 10:54:49;;;;;;;12.15;9.00;;;;;;;14.61;100.00;100050.25;4985078;28;20221;-75
2023/04/03 10:57:15;;;;;;;11.38;8.32;;;;;;;14.61;100.00;100042.34;4988411;28;20174;-75
2023/04/03 10:59:45;;;;;;;15.43;8.90;;;;;;;14.02;100.00;99958.28;4986552;28;20424;-75
2023/04/03 11:02:37;;;;;;;13.93;8.50;;;;;;;15.01;100.00;100140.06;4988679;28;20121;-74
2023/04/03 11:05:24;;;;;;;9.35;8.07;;;;;;;14.19;100.00;100135.59;4984194;28;20057;-74
2023/04/03 11:07:52;;;;;;;22.08;9.25;;;;;;;14.97;100.00;100133.97;4980179;28;20027;-75
2023/04/03 11:10:26;;;;;;;13.88;9.43;;;;;;;13.74;100.00;100027.41;4971286;28;20069;-73
2023/04/03 11:13:25;;;;;;;15.55;9.90;;;;;;;14.86;100.00;100140.41;4988744;28;20050;-73
2023/04/03 11:15:53;;;;;;;12.85;9.82;;;;;;;15.02;100.00;100104.81;4983918;28;20149;-74
2023/04/03 11:18:25;;;;;;;19.60;9.27;;;;;;;14.74;100.00;100096.63;4988427;28;20148;-74